sensor_id;sensor_type;location;lat;lon;timestamp;P1;durP1;ratioP1;P2;durP2;ratioP2
59728;SDS011;45588;51.598;5.618;2022-10-17T00:00:16;14.27;;;12.80;;
59728;SDS011;45588;51.598;5.618;2022-10-17T00:02:42;15.88;;;14.38;;
59728;SDS011;45588;51.598;5.618;2022-10-17T00:05:07;15.77;;;14.10;;
59728;SDS011;45588;51.598;5.618;2022-10-17T00:07:32;15.77;;;13.98;;
59728;SDS011;45588;51.598;5.618;2022-10-17T00:09:58;16.80;;;14.55;;
59728;SDS011;45588;51.598;5.618;2022-10-17T00:12:23;17.20;;;15.50;;
59728;SDS011;45588;51.598;5.618;2022-10-17T00:14:48;8.75;;;7.57;;
59728;SDS011;45588;51.598;5.618;2022-10-17T00:17:13;15.35;;;13.90;;
59728;SDS011;45588;51.598;5.618;2022-10-17T00:19:39;14.63;;;12.43;;
59728;SDS011;45588;51.598;5.618;2022-10-17T00:22:05;15.88;;;14.23;;
59728;SDS011;45588;51.598;5.618;2022-10-17T00:24:30;15.90;;;13.68;;
59728;SDS011;45588;51.598;5.618;2022-10-17T00:26:55;13.90;;;12.45;;
59728;SDS011;45588;51.598;5.618;2022-10-17T00:29:21;15.77;;;14.32;;
59728;SDS011;45588;51.598;5.618;2022-10-17T00:31:46;20.40;;;13.30;;
59728;SDS011;45588;51.598;5.618;2022-10-17T00:34:11;16.58;;;14.98;;
59728;SDS011;45588;51.598;5.618;2022-10-17T00:36:37;18.05;;;7.68;;
59728;SDS011;45588;51.598;5.618;2022-10-17T00:39:02;17.33;;;15.40;;
59728;SDS011;45588;51.598;5.618;2022-10-17T00:41:29;14.32;;;12.13;;
59728;SDS011;45588;51.598;5.618;2022-10-17T00:44:06;16.45;;;14.85;;
59728;SDS011;45588;51.598;5.618;2022-10-17T00:46:51;17.95;;;13.45;;
59728;SDS011;45588;51.598;5.618;2022-10-17T00:49:17;17.23;;;15.48;;
59728;SDS011;45588;51.598;5.618;2022-10-17T00:54:13;13.77;;;12.35;;
59728;SDS011;45588;51.598;5.618;2022-10-17T00:56:42;18.20;;;14.60;;
59728;SDS011;45588;51.598;5.618;2022-10-17T00:59:10;11.85;;;8.68;;
59728;SDS011;45588;51.598;5.618;2022-10-17T01:01:38;18.02;;;16.13;;
59728;SDS011;45588;51.598;5.618;2022-10-17T01:04:05;19.40;;;17.50;;
59728;SDS011;45588;51.598;5.618;2022-10-17T01:06:31;17.38;;;15.55;;
59728;SDS011;45588;51.598;5.618;2022-10-17T01:08:56;13.00;;;8.82;;
59728;SDS011;45588;51.598;5.618;2022-10-17T01:28:50;19.15;;;17.13;;
59728;SDS011;45588;51.598;5.618;2022-10-17T01:31:41;21.23;;;19.02;;
59728;SDS011;45588;51.598;5.618;2022-10-17T01:34:15;21.90;;;19.80;;
59728;SDS011;45588;51.598;5.618;2022-10-17T01:36:47;22.02;;;19.88;;
59728;SDS011;45588;51.598;5.618;2022-10-17T01:39:19;21.20;;;19.13;;
59728;SDS011;45588;51.598;5.618;2022-10-17T01:42:02;18.45;;;11.05;;
59728;SDS011;45588;51.598;5.618;2022-10-17T01:45:02;22.00;;;19.90;;
59728;SDS011;45588;51.598;5.618;2022-10-17T01:47:29;21.63;;;18.17;;
59728;SDS011;45588;51.598;5.618;2022-10-17T01:49:58;21.85;;;19.73;;
59728;SDS011;45588;51.598;5.618;2022-10-17T01:52:34;20.77;;;16.75;;
59728;SDS011;45588;51.598;5.618;2022-10-17T01:55:07;21.63;;;19.52;;
59728;SDS011;45588;51.598;5.618;2022-10-17T01:57:37;15.65;;;9.80;;
59728;SDS011;45588;51.598;5.618;2022-10-17T02:00:07;22.53;;;20.30;;
59728;SDS011;45588;51.598;5.618;2022-10-17T02:02:37;21.45;;;19.27;;
59728;SDS011;45588;51.598;5.618;2022-10-17T02:05:04;20.95;;;18.77;;
59728;SDS011;45588;51.598;5.618;2022-10-17T02:07:29;22.75;;;18.77;;
59728;SDS011;45588;51.598;5.618;2022-10-17T02:09:54;16.77;;;14.43;;
59728;SDS011;45588;51.598;5.618;2022-10-17T02:15:17;22.13;;;19.92;;
59728;SDS011;45588;51.598;5.618;2022-10-17T02:21:15;16.77;;;10.15;;
59728;SDS011;45588;51.598;5.618;2022-10-17T02:26:21;21.85;;;19.83;;
59728;SDS011;45588;51.598;5.618;2022-10-17T02:31:36;22.65;;;19.88;;
59728;SDS011;45588;51.598;5.618;2022-10-17T02:34:07;22.45;;;20.30;;
59728;SDS011;45588;51.598;5.618;2022-10-17T02:36:38;21.67;;;19.38;;
59728;SDS011;45588;51.598;5.618;2022-10-17T02:39:06;21.58;;;19.20;;
59728;SDS011;45588;51.598;5.618;2022-10-17T02:41:34;22.25;;;20.05;;
59728;SDS011;45588;51.598;5.618;2022-10-17T02:44:02;23.65;;;19.95;;
59728;SDS011;45588;51.598;5.618;2022-10-17T02:46:30;21.60;;;19.40;;
59728;SDS011;45588;51.598;5.618;2022-10-17T02:48:59;23.15;;;18.20;;
59728;SDS011;45588;51.598;5.618;2022-10-17T02:51:36;22.95;;;20.67;;
59728;SDS011;45588;51.598;5.618;2022-10-17T02:56:46;24.30;;;20.55;;
59728;SDS011;45588;51.598;5.618;2022-10-17T02:59:14;23.75;;;19.50;;
59728;SDS011;45588;51.598;5.618;2022-10-17T03:01:44;23.55;;;21.15;;
59728;SDS011;45588;51.598;5.618;2022-10-17T03:04:10;26.13;;;21.42;;
59728;SDS011;45588;51.598;5.618;2022-10-17T03:06:38;18.58;;;16.52;;
59728;SDS011;45588;51.598;5.618;2022-10-17T03:09:04;22.98;;;20.58;;
59728;SDS011;45588;51.598;5.618;2022-10-17T03:11:30;28.48;;;21.42;;
59728;SDS011;45588;51.598;5.618;2022-10-17T03:13:55;23.67;;;21.25;;
59728;SDS011;45588;51.598;5.618;2022-10-17T03:16:20;23.90;;;21.30;;
59728;SDS011;45588;51.598;5.618;2022-10-17T03:18:46;24.98;;;21.85;;
59728;SDS011;45588;51.598;5.618;2022-10-17T03:21:11;21.88;;;19.55;;
59728;SDS011;45588;51.598;5.618;2022-10-17T03:23:36;22.40;;;20.10;;
59728;SDS011;45588;51.598;5.618;2022-10-17T03:26:05;18.63;;;15.68;;
59728;SDS011;45588;51.598;5.618;2022-10-17T03:28:31;22.20;;;20.08;;
59728;SDS011;45588;51.598;5.618;2022-10-17T03:30:57;23.38;;;20.95;;
59728;SDS011;45588;51.598;5.618;2022-10-17T03:33:22;18.98;;;17.00;;
59728;SDS011;45588;51.598;5.618;2022-10-17T03:35:47;19.58;;;17.65;;
59728;SDS011;45588;51.598;5.618;2022-10-17T03:38:13;21.35;;;19.17;;
59728;SDS011;45588;51.598;5.618;2022-10-17T03:40:38;19.80;;;17.75;;
59728;SDS011;45588;51.598;5.618;2022-10-17T03:43:03;21.90;;;19.30;;
59728;SDS011;45588;51.598;5.618;2022-10-17T03:45:28;21.55;;;18.27;;
59728;SDS011;45588;51.598;5.618;2022-10-17T03:47:54;22.95;;;20.85;;
59728;SDS011;45588;51.598;5.618;2022-10-17T03:50:19;23.35;;;20.83;;
59728;SDS011;45588;51.598;5.618;2022-10-17T03:52:47;24.30;;;21.33;;
59728;SDS011;45588;51.598;5.618;2022-10-17T03:55:13;20.65;;;18.52;;
59728;SDS011;45588;51.598;5.618;2022-10-17T03:57:38;24.95;;;17.58;;
59728;SDS011;45588;51.598;5.618;2022-10-17T04:00:04;22.70;;;20.30;;
59728;SDS011;45588;51.598;5.618;2022-10-17T04:02:30;23.80;;;20.98;;
59728;SDS011;45588;51.598;5.618;2022-10-17T04:04:55;21.88;;;19.83;;
59728;SDS011;45588;51.598;5.618;2022-10-17T04:07:20;23.85;;;21.48;;
59728;SDS011;45588;51.598;5.618;2022-10-17T04:09:45;21.88;;;17.38;;
59728;SDS011;45588;51.598;5.618;2022-10-17T04:12:11;20.02;;;17.90;;
59728;SDS011;45588;51.598;5.618;2022-10-17T04:14:36;23.25;;;20.15;;
59728;SDS011;45588;51.598;5.618;2022-10-17T04:17:02;22.67;;;20.38;;
59728;SDS011;45588;51.598;5.618;2022-10-17T04:19:28;21.92;;;19.67;;
59728;SDS011;45588;51.598;5.618;2022-10-17T04:21:53;21.75;;;19.52;;
59728;SDS011;45588;51.598;5.618;2022-10-17T04:24:18;21.65;;;17.90;;
59728;SDS011;45588;51.598;5.618;2022-10-17T04:26:44;17.83;;;15.43;;
59728;SDS011;45588;51.598;5.618;2022-10-17T04:29:09;21.20;;;18.98;;
59728;SDS011;45588;51.598;5.618;2022-10-17T04:31:35;20.25;;;15.57;;
59728;SDS011;45588;51.598;5.618;2022-10-17T04:34:01;19.60;;;17.45;;
59728;SDS011;45588;51.598;5.618;2022-10-17T04:36:26;19.67;;;17.77;;
59728;SDS011;45588;51.598;5.618;2022-10-17T04:38:51;19.23;;;17.20;;
59728;SDS011;45588;51.598;5.618;2022-10-17T04:41:17;18.48;;;16.58;;
59728;SDS011;45588;51.598;5.618;2022-10-17T04:43:43;18.17;;;16.33;;
59728;SDS011;45588;51.598;5.618;2022-10-17T04:46:09;17.83;;;15.23;;
59728;SDS011;45588;51.598;5.618;2022-10-17T04:48:37;17.80;;;15.90;;
59728;SDS011;45588;51.598;5.618;2022-10-17T04:51:04;20.40;;;16.45;;
59728;SDS011;45588;51.598;5.618;2022-10-17T04:53:35;17.35;;;15.63;;
59728;SDS011;45588;51.598;5.618;2022-10-17T04:56:06;16.23;;;14.60;;
59728;SDS011;45588;51.598;5.618;2022-10-17T04:58:36;16.95;;;15.35;;
59728;SDS011;45588;51.598;5.618;2022-10-17T05:01:05;16.45;;;14.88;;
59728;SDS011;45588;51.598;5.618;2022-10-17T05:03:32;17.10;;;14.88;;
59728;SDS011;45588;51.598;5.618;2022-10-17T05:06:01;16.42;;;14.68;;
59728;SDS011;45588;51.598;5.618;2022-10-17T05:08:28;15.20;;;13.63;;
59728;SDS011;45588;51.598;5.618;2022-10-17T05:10:53;17.08;;;15.00;;
59728;SDS011;45588;51.598;5.618;2022-10-17T05:13:18;15.30;;;13.75;;
59728;SDS011;45588;51.598;5.618;2022-10-17T05:15:44;15.85;;;14.13;;
59728;SDS011;45588;51.598;5.618;2022-10-17T05:18:09;17.10;;;14.07;;
59728;SDS011;45588;51.598;5.618;2022-10-17T05:20:35;15.63;;;14.32;;
59728;SDS011;45588;51.598;5.618;2022-10-17T05:23:00;15.80;;;13.50;;
59728;SDS011;45588;51.598;5.618;2022-10-17T05:25:26;17.88;;;14.40;;
59728;SDS011;45588;51.598;5.618;2022-10-17T05:27:52;15.40;;;13.88;;
59728;SDS011;45588;51.598;5.618;2022-10-17T05:30:17;16.73;;;13.75;;
59728;SDS011;45588;51.598;5.618;2022-10-17T05:32:42;15.15;;;13.65;;
59728;SDS011;45588;51.598;5.618;2022-10-17T05:35:08;16.80;;;15.05;;
59728;SDS011;45588;51.598;5.618;2022-10-17T05:37:33;16.63;;;13.68;;
59728;SDS011;45588;51.598;5.618;2022-10-17T05:39:58;14.48;;;13.07;;
59728;SDS011;45588;51.598;5.618;2022-10-17T05:42:24;15.05;;;13.65;;
59728;SDS011;45588;51.598;5.618;2022-10-17T05:44:49;15.20;;;13.80;;
59728;SDS011;45588;51.598;5.618;2022-10-17T05:47:14;15.18;;;13.75;;
59728;SDS011;45588;51.598;5.618;2022-10-17T05:49:40;14.95;;;13.38;;
59728;SDS011;45588;51.598;5.618;2022-10-17T05:52:05;13.70;;;12.38;;
59728;SDS011;45588;51.598;5.618;2022-10-17T05:54:31;15.43;;;13.73;;
59728;SDS011;45588;51.598;5.618;2022-10-17T05:56:56;16.42;;;12.82;;
59728;SDS011;45588;51.598;5.618;2022-10-17T05:59:23;14.52;;;13.05;;
59728;SDS011;45588;51.598;5.618;2022-10-17T06:01:49;15.85;;;14.18;;
59728;SDS011;45588;51.598;5.618;2022-10-17T06:04:14;19.30;;;14.15;;
59728;SDS011;45588;51.598;5.618;2022-10-17T06:06:40;15.18;;;13.70;;
59728;SDS011;45588;51.598;5.618;2022-10-17T06:09:05;15.55;;;13.13;;
59728;SDS011;45588;51.598;5.618;2022-10-17T06:11:32;13.80;;;12.55;;
59728;SDS011;45588;51.598;5.618;2022-10-17T06:13:57;15.50;;;13.45;;
59728;SDS011;45588;51.598;5.618;2022-10-17T06:16:22;18.38;;;13.00;;
59728;SDS011;45588;51.598;5.618;2022-10-17T06:18:48;14.63;;;11.32;;
59728;SDS011;45588;51.598;5.618;2022-10-17T06:21:14;14.07;;;12.00;;
59728;SDS011;45588;51.598;5.618;2022-10-17T06:23:40;14.57;;;13.18;;
59728;SDS011;45588;51.598;5.618;2022-10-17T06:26:06;14.82;;;13.18;;
59728;SDS011;45588;51.598;5.618;2022-10-17T06:28:31;14.63;;;13.23;;
59728;SDS011;45588;51.598;5.618;2022-10-17T06:30:58;14.43;;;13.00;;
59728;SDS011;45588;51.598;5.618;2022-10-17T06:33:23;15.20;;;13.15;;
59728;SDS011;45588;51.598;5.618;2022-10-17T06:35:52;14.63;;;13.20;;
59728;SDS011;45588;51.598;5.618;2022-10-17T06:38:18;14.93;;;13.43;;
59728;SDS011;45588;51.598;5.618;2022-10-17T06:40:44;14.50;;;12.77;;
59728;SDS011;45588;51.598;5.618;2022-10-17T06:43:09;13.70;;;12.18;;
59728;SDS011;45588;51.598;5.618;2022-10-17T06:45:36;16.15;;;13.38;;
59728;SDS011;45588;51.598;5.618;2022-10-17T06:48:02;14.50;;;13.07;;
59728;SDS011;45588;51.598;5.618;2022-10-17T06:50:28;14.07;;;12.63;;
59728;SDS011;45588;51.598;5.618;2022-10-17T06:52:53;14.27;;;12.82;;
59728;SDS011;45588;51.598;5.618;2022-10-17T06:55:18;13.88;;;12.65;;
59728;SDS011;45588;51.598;5.618;2022-10-17T06:57:44;14.23;;;12.20;;
59728;SDS011;45588;51.598;5.618;2022-10-17T07:00:09;13.80;;;12.43;;
59728;SDS011;45588;51.598;5.618;2022-10-17T07:02:35;13.10;;;11.80;;
59728;SDS011;45588;51.598;5.618;2022-10-17T07:05:00;13.07;;;11.65;;
59728;SDS011;45588;51.598;5.618;2022-10-17T07:07:26;11.00;;;9.90;;
59728;SDS011;45588;51.598;5.618;2022-10-17T07:09:55;13.07;;;11.77;;
59728;SDS011;45588;51.598;5.618;2022-10-17T07:12:20;13.23;;;11.85;;
59728;SDS011;45588;51.598;5.618;2022-10-17T07:14:45;12.77;;;11.50;;
59728;SDS011;45588;51.598;5.618;2022-10-17T07:17:11;15.30;;;11.90;;
59728;SDS011;45588;51.598;5.618;2022-10-17T07:19:37;12.60;;;11.50;;
59728;SDS011;45588;51.598;5.618;2022-10-17T07:22:02;14.98;;;12.57;;
59728;SDS011;45588;51.598;5.618;2022-10-17T07:24:28;18.15;;;12.13;;
59728;SDS011;45588;51.598;5.618;2022-10-17T07:26:53;13.80;;;11.93;;
59728;SDS011;45588;51.598;5.618;2022-10-17T07:29:18;15.10;;;11.48;;
59728;SDS011;45588;51.598;5.618;2022-10-17T07:31:44;18.33;;;11.30;;
59728;SDS011;45588;51.598;5.618;2022-10-17T07:34:12;12.68;;;11.45;;
59728;SDS011;45588;51.598;5.618;2022-10-17T07:36:37;11.77;;;10.57;;
59728;SDS011;45588;51.598;5.618;2022-10-17T07:39:03;12.38;;;11.02;;
59728;SDS011;45588;51.598;5.618;2022-10-17T07:41:28;13.35;;;11.95;;
59728;SDS011;45588;51.598;5.618;2022-10-17T07:43:54;12.73;;;11.50;;
59728;SDS011;45588;51.598;5.618;2022-10-17T07:46:20;18.13;;;12.85;;
59728;SDS011;45588;51.598;5.618;2022-10-17T07:48:45;14.25;;;11.18;;
59728;SDS011;45588;51.598;5.618;2022-10-17T07:51:10;12.57;;;11.20;;
59728;SDS011;45588;51.598;5.618;2022-10-17T07:53:36;13.63;;;12.23;;
59728;SDS011;45588;51.598;5.618;2022-10-17T07:56:06;11.85;;;10.75;;
59728;SDS011;45588;51.598;5.618;2022-10-17T07:58:33;13.52;;;11.10;;
59728;SDS011;45588;51.598;5.618;2022-10-17T08:00:59;11.40;;;10.20;;
59728;SDS011;45588;51.598;5.618;2022-10-17T08:03:29;12.55;;;9.20;;
59728;SDS011;45588;51.598;5.618;2022-10-17T08:06:01;9.77;;;8.60;;
59728;SDS011;45588;51.598;5.618;2022-10-17T08:08:27;11.05;;;9.40;;
59728;SDS011;45588;51.598;5.618;2022-10-17T08:10:53;10.55;;;8.65;;
59728;SDS011;45588;51.598;5.618;2022-10-17T08:13:20;10.18;;;8.38;;
59728;SDS011;45588;51.598;5.618;2022-10-17T08:15:46;10.13;;;8.77;;
59728;SDS011;45588;51.598;5.618;2022-10-17T08:18:12;10.98;;;8.23;;
59728;SDS011;45588;51.598;5.618;2022-10-17T08:20:39;10.73;;;8.48;;
59728;SDS011;45588;51.598;5.618;2022-10-17T08:23:05;11.00;;;8.35;;
59728;SDS011;45588;51.598;5.618;2022-10-17T08:25:30;12.77;;;8.18;;
59728;SDS011;45588;51.598;5.618;2022-10-17T08:27:56;9.85;;;8.50;;
59728;SDS011;45588;51.598;5.618;2022-10-17T08:30:22;10.27;;;8.68;;
59728;SDS011;45588;51.598;5.618;2022-10-17T08:32:47;9.65;;;8.13;;
59728;SDS011;45588;51.598;5.618;2022-10-17T08:35:12;9.20;;;8.05;;
59728;SDS011;45588;51.598;5.618;2022-10-17T08:37:38;9.18;;;8.27;;
59728;SDS011;45588;51.598;5.618;2022-10-17T08:40:04;12.73;;;8.95;;
59728;SDS011;45588;51.598;5.618;2022-10-17T08:42:44;10.05;;;8.68;;
59728;SDS011;45588;51.598;5.618;2022-10-17T08:45:28;10.57;;;8.25;;
59728;SDS011;45588;51.598;5.618;2022-10-17T08:48:00;11.90;;;9.40;;
59728;SDS011;45588;51.598;5.618;2022-10-17T08:50:36;9.38;;;8.55;;
59728;SDS011;45588;51.598;5.618;2022-10-17T08:55:50;10.30;;;9.25;;
59728;SDS011;45588;51.598;5.618;2022-10-17T08:58:50;10.20;;;9.27;;
59728;SDS011;45588;51.598;5.618;2022-10-17T09:01:12;10.43;;;9.20;;
59728;SDS011;45588;51.598;5.618;2022-10-17T09:04:10;11.00;;;9.60;;
59728;SDS011;45588;51.598;5.618;2022-10-17T09:09:59;10.75;;;9.52;;
59728;SDS011;45588;51.598;5.618;2022-10-17T09:13:01;12.35;;;10.90;;
59728;SDS011;45588;51.598;5.618;2022-10-17T09:15:58;11.30;;;10.13;;
59728;SDS011;45588;51.598;5.618;2022-10-17T09:18:36;10.27;;;9.18;;
59728;SDS011;45588;51.598;5.618;2022-10-17T09:23:54;11.57;;;10.43;;
59728;SDS011;45588;51.598;5.618;2022-10-17T09:26:22;12.57;;;11.15;;
59728;SDS011;45588;51.598;5.618;2022-10-17T09:28:50;12.85;;;11.27;;
59728;SDS011;45588;51.598;5.618;2022-10-17T09:31:31;12.80;;;11.40;;
59728;SDS011;45588;51.598;5.618;2022-10-17T09:34:07;21.45;;;12.27;;
59728;SDS011;45588;51.598;5.618;2022-10-17T09:36:35;16.25;;;13.45;;
59728;SDS011;45588;51.598;5.618;2022-10-17T09:39:12;15.13;;;12.27;;
59728;SDS011;45588;51.598;5.618;2022-10-17T09:41:51;18.30;;;12.90;;
59728;SDS011;45588;51.598;5.618;2022-10-17T09:44:23;13.35;;;11.95;;
59728;SDS011;45588;51.598;5.618;2022-10-17T09:47:00;15.18;;;12.60;;
59728;SDS011;45588;51.598;5.618;2022-10-17T09:49:38;13.90;;;12.50;;
59728;SDS011;45588;51.598;5.618;2022-10-17T09:55:04;15.93;;;12.57;;
59728;SDS011;45588;51.598;5.618;2022-10-17T09:57:58;16.80;;;12.50;;
59728;SDS011;45588;51.598;5.618;2022-10-17T10:00:27;14.77;;;12.10;;
59728;SDS011;45588;51.598;5.618;2022-10-17T10:05:41;13.75;;;11.73;;
59728;SDS011;45588;51.598;5.618;2022-10-17T10:08:14;14.23;;;11.60;;
59728;SDS011;45588;51.598;5.618;2022-10-17T10:10:41;13.93;;;11.57;;
59728;SDS011;45588;51.598;5.618;2022-10-17T10:18:47;15.15;;;12.02;;
59728;SDS011;45588;51.598;5.618;2022-10-17T10:23:32;13.32;;;10.52;;
59728;SDS011;45588;51.598;5.618;2022-10-17T10:25:58;14.13;;;11.65;;
59728;SDS011;45588;51.598;5.618;2022-10-17T10:28:28;16.92;;;11.73;;
59728;SDS011;45588;51.598;5.618;2022-10-17T10:31:04;14.23;;;11.60;;
59728;SDS011;45588;51.598;5.618;2022-10-17T10:33:32;12.60;;;11.50;;
59728;SDS011;45588;51.598;5.618;2022-10-17T10:36:05;13.57;;;12.18;;
59728;SDS011;45588;51.598;5.618;2022-10-17T10:38:31;15.10;;;12.68;;
59728;SDS011;45588;51.598;5.618;2022-10-17T10:41:08;16.95;;;11.98;;
59728;SDS011;45588;51.598;5.618;2022-10-17T10:43:45;18.30;;;12.55;;
59728;SDS011;45588;51.598;5.618;2022-10-17T10:46:19;13.20;;;11.82;;
59728;SDS011;45588;51.598;5.618;2022-10-17T10:48:52;13.93;;;12.52;;
59728;SDS011;45588;51.598;5.618;2022-10-17T10:51:22;12.88;;;11.55;;
59728;SDS011;45588;51.598;5.618;2022-10-17T10:54:08;12.82;;;11.52;;
59728;SDS011;45588;51.598;5.618;2022-10-17T10:56:40;12.80;;;11.57;;
59728;SDS011;45588;51.598;5.618;2022-10-17T11:07:09;13.93;;;10.73;;
59728;SDS011;45588;51.598;5.618;2022-10-17T11:09:50;12.20;;;10.38;;
59728;SDS011;45588;51.598;5.618;2022-10-17T11:12:23;12.90;;;10.70;;
59728;SDS011;45588;51.598;5.618;2022-10-17T11:20:15;13.15;;;10.48;;
59728;SDS011;45588;51.598;5.618;2022-10-17T11:22:47;13.07;;;10.65;;
59728;SDS011;45588;51.598;5.618;2022-10-17T11:25:30;11.60;;;10.40;;
59728;SDS011;45588;51.598;5.618;2022-10-17T11:27:58;12.43;;;11.18;;
59728;SDS011;45588;51.598;5.618;2022-10-17T11:30:25;11.77;;;10.60;;
59728;SDS011;45588;51.598;5.618;2022-10-17T11:32:55;11.57;;;10.48;;
59728;SDS011;45588;51.598;5.618;2022-10-17T11:35:35;16.37;;;11.37;;
59728;SDS011;45588;51.598;5.618;2022-10-17T11:40:46;12.40;;;11.13;;
59728;SDS011;45588;51.598;5.618;2022-10-17T11:43:19;12.23;;;11.00;;
59728;SDS011;45588;51.598;5.618;2022-10-17T11:45:51;12.45;;;11.20;;
59728;SDS011;45588;51.598;5.618;2022-10-17T11:48:33;13.00;;;11.32;;
59728;SDS011;45588;51.598;5.618;2022-10-17T11:51:08;13.23;;;11.82;;
59728;SDS011;45588;51.598;5.618;2022-10-17T11:53:58;13.40;;;11.85;;
59728;SDS011;45588;51.598;5.618;2022-10-17T11:56:45;13.88;;;12.35;;
59728;SDS011;45588;51.598;5.618;2022-10-17T12:01:53;15.15;;;12.82;;
59728;SDS011;45588;51.598;5.618;2022-10-17T12:09:56;13.77;;;12.43;;
59728;SDS011;45588;51.598;5.618;2022-10-17T12:12:31;14.32;;;12.85;;
59728;SDS011;45588;51.598;5.618;2022-10-17T12:17:55;13.95;;;12.55;;
59728;SDS011;45588;51.598;5.618;2022-10-17T12:20:24;14.38;;;12.20;;
59728;SDS011;45588;51.598;5.618;2022-10-17T12:23:03;14.18;;;12.88;;
59728;SDS011;45588;51.598;5.618;2022-10-17T12:25:56;16.45;;;12.88;;
59728;SDS011;45588;51.598;5.618;2022-10-17T12:28:39;13.75;;;12.55;;
59728;SDS011;45588;51.598;5.618;2022-10-17T12:33:46;16.55;;;14.80;;
59728;SDS011;45588;51.598;5.618;2022-10-17T12:38:43;16.95;;;15.23;;
59728;SDS011;45588;51.598;5.618;2022-10-17T12:41:10;17.08;;;14.82;;
59728;SDS011;45588;51.598;5.618;2022-10-17T12:43:43;18.73;;;15.43;;
59728;SDS011;45588;51.598;5.618;2022-10-17T12:52:14;20.08;;;17.95;;
59728;SDS011;45588;51.598;5.618;2022-10-17T13:00:00;16.92;;;15.07;;
59728;SDS011;45588;51.598;5.618;2022-10-17T13:02:29;18.33;;;16.52;;
59728;SDS011;45588;51.598;5.618;2022-10-17T13:05:03;16.80;;;15.02;;
59728;SDS011;45588;51.598;5.618;2022-10-17T13:07:32;20.00;;;15.68;;
59728;SDS011;45588;51.598;5.618;2022-10-17T13:10:00;17.05;;;15.25;;
59728;SDS011;45588;51.598;5.618;2022-10-17T13:12:29;17.00;;;15.32;;
59728;SDS011;45588;51.598;5.618;2022-10-17T13:14:57;16.30;;;14.88;;
59728;SDS011;45588;51.598;5.618;2022-10-17T13:17:26;18.23;;;16.45;;
59728;SDS011;45588;51.598;5.618;2022-10-17T13:22:21;17.80;;;16.10;;
59728;SDS011;45588;51.598;5.618;2022-10-17T13:24:49;19.15;;;15.82;;
59728;SDS011;45588;51.598;5.618;2022-10-17T13:27:23;18.42;;;16.63;;
59728;SDS011;45588;51.598;5.618;2022-10-17T13:29:51;20.60;;;16.30;;
59728;SDS011;45588;51.598;5.618;2022-10-17T13:32:20;17.73;;;15.90;;
59728;SDS011;45588;51.598;5.618;2022-10-17T13:34:45;20.83;;;17.40;;
59728;SDS011;45588;51.598;5.618;2022-10-17T13:37:28;18.13;;;16.40;;
59728;SDS011;45588;51.598;5.618;2022-10-17T13:39:54;20.48;;;17.33;;
59728;SDS011;45588;51.598;5.618;2022-10-17T13:42:23;19.25;;;17.45;;
59728;SDS011;45588;51.598;5.618;2022-10-17T13:44:51;19.70;;;17.77;;
59728;SDS011;45588;51.598;5.618;2022-10-17T13:47:23;18.73;;;16.92;;
59728;SDS011;45588;51.598;5.618;2022-10-17T13:49:51;20.88;;;18.70;;
59728;SDS011;45588;51.598;5.618;2022-10-17T13:52:19;20.65;;;18.50;;
59728;SDS011;45588;51.598;5.618;2022-10-17T13:54:47;20.30;;;18.38;;
59728;SDS011;45588;51.598;5.618;2022-10-17T13:57:27;20.20;;;18.08;;
59728;SDS011;45588;51.598;5.618;2022-10-17T13:59:58;19.55;;;17.50;;
59728;SDS011;45588;51.598;5.618;2022-10-17T14:02:30;20.17;;;18.17;;
59728;SDS011;45588;51.598;5.618;2022-10-17T14:05:03;20.17;;;17.02;;
59728;SDS011;45588;51.598;5.618;2022-10-17T14:10:13;18.48;;;15.90;;
59728;SDS011;45588;51.598;5.618;2022-10-17T14:12:43;20.15;;;17.20;;
59728;SDS011;45588;51.598;5.618;2022-10-17T14:15:08;18.23;;;16.33;;
59728;SDS011;45588;51.598;5.618;2022-10-17T14:17:38;18.80;;;16.90;;
59728;SDS011;45588;51.598;5.618;2022-10-17T14:20:04;19.42;;;17.42;;
59728;SDS011;45588;51.598;5.618;2022-10-17T14:22:33;18.95;;;17.10;;
59728;SDS011;45588;51.598;5.618;2022-10-17T14:25:00;19.52;;;16.98;;
59728;SDS011;45588;51.598;5.618;2022-10-17T14:27:36;20.23;;;17.77;;
59728;SDS011;45588;51.598;5.618;2022-10-17T14:32:52;17.75;;;16.13;;
59728;SDS011;45588;51.598;5.618;2022-10-17T14:35:20;17.77;;;16.10;;
59728;SDS011;45588;51.598;5.618;2022-10-17T14:37:46;19.50;;;15.70;;
59728;SDS011;45588;51.598;5.618;2022-10-17T14:40:21;17.85;;;16.13;;
59728;SDS011;45588;51.598;5.618;2022-10-17T14:42:49;18.55;;;15.95;;
59728;SDS011;45588;51.598;5.618;2022-10-17T14:45:22;16.02;;;14.35;;
59728;SDS011;45588;51.598;5.618;2022-10-17T14:47:50;15.95;;;14.43;;
59728;SDS011;45588;51.598;5.618;2022-10-17T14:50:22;17.30;;;14.20;;
59728;SDS011;45588;51.598;5.618;2022-10-17T14:53:05;15.82;;;14.43;;
59728;SDS011;45588;51.598;5.618;2022-10-17T14:58:26;17.73;;;15.88;;
59728;SDS011;45588;51.598;5.618;2022-10-17T15:00:52;17.00;;;15.20;;
59728;SDS011;45588;51.598;5.618;2022-10-17T15:03:19;16.67;;;15.13;;
59728;SDS011;45588;51.598;5.618;2022-10-17T15:05:44;17.80;;;15.50;;
59728;SDS011;45588;51.598;5.618;2022-10-17T15:08:14;15.80;;;14.18;;
59728;SDS011;45588;51.598;5.618;2022-10-17T15:10:41;17.40;;;15.65;;
59728;SDS011;45588;51.598;5.618;2022-10-17T15:13:07;17.30;;;15.70;;
59728;SDS011;45588;51.598;5.618;2022-10-17T15:15:33;15.75;;;13.70;;
59728;SDS011;45588;51.598;5.618;2022-10-17T15:17:59;15.65;;;14.15;;
59728;SDS011;45588;51.598;5.618;2022-10-17T15:20:25;20.27;;;15.70;;
59728;SDS011;45588;51.598;5.618;2022-10-17T15:22:53;17.13;;;15.40;;
59728;SDS011;45588;51.598;5.618;2022-10-17T15:25:19;17.25;;;15.55;;
59728;SDS011;45588;51.598;5.618;2022-10-17T15:27:45;17.70;;;15.85;;
59728;SDS011;45588;51.598;5.618;2022-10-17T15:30:20;17.45;;;15.95;;
59728;SDS011;45588;51.598;5.618;2022-10-17T15:32:47;17.88;;;16.08;;
59728;SDS011;45588;51.598;5.618;2022-10-17T15:35:14;18.67;;;17.08;;
59728;SDS011;45588;51.598;5.618;2022-10-17T15:37:40;19.05;;;17.15;;
59728;SDS011;45588;51.598;5.618;2022-10-17T15:40:08;19.27;;;17.35;;
59728;SDS011;45588;51.598;5.618;2022-10-17T15:42:38;19.27;;;17.25;;
59728;SDS011;45588;51.598;5.618;2022-10-17T15:45:04;19.85;;;18.08;;
59728;SDS011;45588;51.598;5.618;2022-10-17T15:47:31;20.27;;;18.42;;
59728;SDS011;45588;51.598;5.618;2022-10-17T15:49:57;20.30;;;18.17;;
59728;SDS011;45588;51.598;5.618;2022-10-17T15:52:23;21.40;;;19.40;;
59728;SDS011;45588;51.598;5.618;2022-10-17T15:54:49;19.75;;;17.95;;
59728;SDS011;45588;51.598;5.618;2022-10-17T15:57:19;21.63;;;19.33;;
59728;SDS011;45588;51.598;5.618;2022-10-17T15:59:46;21.33;;;19.13;;
59728;SDS011;45588;51.598;5.618;2022-10-17T16:02:13;22.17;;;19.92;;
59728;SDS011;45588;51.598;5.618;2022-10-17T16:04:39;21.63;;;19.48;;
59728;SDS011;45588;51.598;5.618;2022-10-17T16:07:05;22.25;;;20.00;;
59728;SDS011;45588;51.598;5.618;2022-10-17T16:09:31;22.80;;;20.60;;
59728;SDS011;45588;51.598;5.618;2022-10-17T16:11:57;21.83;;;19.77;;
59728;SDS011;45588;51.598;5.618;2022-10-17T16:14:24;21.73;;;19.70;;
59728;SDS011;45588;51.598;5.618;2022-10-17T16:16:50;21.85;;;19.50;;
59728;SDS011;45588;51.598;5.618;2022-10-17T16:19:15;21.80;;;19.80;;
59728;SDS011;45588;51.598;5.618;2022-10-17T16:21:40;22.10;;;19.98;;
59728;SDS011;45588;51.598;5.618;2022-10-17T16:24:08;22.05;;;19.95;;